createdAt,value
2018-05-09T00:00:22.204Z,68.20
2018-05-09T00:02:50.132Z,68.40
2018-05-09T00:05:18.053Z,69.00
2018-05-09T00:07:45.964Z,69.10
2018-05-09T00:10:13.986Z,68.90
2018-05-09T00:12:41.997Z,69.10
2018-05-09T00:15:10.699Z,69.00
2018-05-09T00:17:38.674Z,69.00
2018-05-09T00:20:06.587Z,68.50
2018-05-09T00:22:34.581Z,68.60
2018-05-09T00:25:03.251Z,69.80
2018-05-09T00:27:31.203Z,69.80
2018-05-09T00:29:59.215Z,70.00
2018-05-09T00:32:27.902Z,70.60
2018-05-09T00:34:56.572Z,70.60
2018-05-09T00:37:25.235Z,70.80
2018-05-09T00:39:53.242Z,70.80
2018-05-09T00:42:21.925Z,71.50
2018-05-09T00:44:50.631Z,71.30
2018-05-09T00:47:18.613Z,71.30
2018-05-09T00:49:46.646Z,71.10
2018-05-09T00:52:15.386Z,72.10
2018-05-09T00:54:43.353Z,71.30
2018-05-09T00:57:11.251Z,71.40
2018-05-09T00:59:39.163Z,71.90
2018-05-09T01:02:07.079Z,72.40
2018-05-09T01:04:35.073Z,72.20
2018-05-09T01:07:03.857Z,71.80
2018-05-09T01:09:31.917Z,71.10
2018-05-09T01:11:59.813Z,72.60
2018-05-09T01:14:28.542Z,72.40
2018-05-09T01:16:56.552Z,72.30
2018-05-09T01:19:24.568Z,71.80
2018-05-09T01:21:52.502Z,72.80
2018-05-09T01:24:21.258Z,73.20
2018-05-09T01:26:49.260Z,72.80
2018-05-09T01:29:17.971Z,73.50
2018-05-09T01:31:45.954Z,72.80
2018-05-09T01:34:13.862Z,74.00
2018-05-09T01:36:41.835Z,73.40
2018-05-09T01:39:09.833Z,74.20
2018-05-09T01:41:38.707Z,72.80
2018-05-09T01:44:06.693Z,72.80
2018-05-09T01:46:35.400Z,73.40
2018-05-09T01:49:03.386Z,73.40
2018-05-09T01:51:31.366Z,73.50
2018-05-09T01:53:59.256Z,73.30
2018-05-09T01:56:27.144Z,73.20
2018-05-09T01:58:55.064Z,73.30
2018-05-09T02:01:22.975Z,72.60
2018-05-09T02:03:50.983Z,72.10
2018-05-09T02:06:18.922Z,73.20
2018-05-09T02:08:46.887Z,73.00
2018-05-09T02:11:14.863Z,72.50
2018-05-09T02:13:43.653Z,72.30
2018-05-09T02:16:12.398Z,73.70
2018-05-09T02:18:40.306Z,72.90
2018-05-09T02:21:09.060Z,74.30
2018-05-09T02:23:37.056Z,73.70
2018-05-09T02:26:05.026Z,73.00
2018-05-09T02:28:32.942Z,72.90
2018-05-09T02:31:00.893Z,72.10
2018-05-09T02:33:28.904Z,72.60
2018-05-09T02:35:56.877Z,73.30
2018-05-09T02:38:25.615Z,74.10
2018-05-09T02:40:54.367Z,74.30
2018-05-09T02:43:22.353Z,74.20
2018-05-09T02:45:50.336Z,75.10
2018-05-09T02:48:19.005Z,75.10
2018-05-09T02:50:47.105Z,75.00
2018-05-09T02:53:15.091Z,75.30
2018-05-09T02:55:43.077Z,75.70
2018-05-09T02:58:11.097Z,76.60
2018-05-09T03:00:39.790Z,75.80
2018-05-09T03:03:08.471Z,75.80
2018-05-09T03:05:36.482Z,75.80
2018-05-09T03:08:04.479Z,76.60
2018-05-09T03:10:32.382Z,77.60
2018-05-09T03:13:01.191Z,79.20
2018-05-09T03:15:29.098Z,79.00
2018-05-09T03:17:57.077Z,79.10
2018-05-09T03:20:25.119Z,79.60
2018-05-09T03:22:53.071Z,79.60
2018-05-09T03:25:20.960Z,78.90
2018-05-09T03:27:49.002Z,78.80
2018-05-09T03:30:17.727Z,78.90
2018-05-09T03:32:45.679Z,78.90
2018-05-09T03:35:13.646Z,78.50
2018-05-09T03:37:41.532Z,78.60
2018-05-09T03:40:09.548Z,78.90
2018-05-09T03:42:37.695Z,78.70
2018-05-09T03:45:06.434Z,78.80
2018-05-09T03:47:34.359Z,78.80
2018-05-09T03:50:02.384Z,78.60
2018-05-09T03:52:30.302Z,78.30
2018-05-09T03:54:58.231Z,78.20
2018-05-09T03:57:26.201Z,78.40
2018-05-09T03:59:54.116Z,79.00
2018-05-09T04:02:38.010Z,78.90
2018-05-09T04:05:17.733Z,78.10
2018-05-09T04:07:58.363Z,78.20
2018-05-09T04:10:26.274Z,77.90
2018-05-09T04:12:54.974Z,77.10
2018-05-09T04:15:22.914Z,77.10
2018-05-09T04:17:51.678Z,77.30
2018-05-09T04:20:19.734Z,77.30
2018-05-09T04:22:47.765Z,78.10
2018-05-09T04:25:15.716Z,77.10
2018-05-09T04:27:44.482Z,76.20
2018-05-09T04:30:12.433Z,76.20
2018-05-09T04:32:40.393Z,76.70
2018-05-09T04:35:08.327Z,76.20
2018-05-09T04:37:36.366Z,77.50
2018-05-09T04:40:04.347Z,76.70
2018-05-09T04:42:33.057Z,77.10
2018-05-09T04:45:00.998Z,76.60
2018-05-09T04:47:28.901Z,76.40
2018-05-09T04:49:56.779Z,76.80
2018-05-09T04:52:24.699Z,76.80
2018-05-09T04:54:52.702Z,76.40
2018-05-09T04:57:20.595Z,75.50
2018-05-09T04:59:48.535Z,76.30
2018-05-09T05:02:16.502Z,75.80
2018-05-09T05:04:44.474Z,75.50
2018-05-09T05:07:12.474Z,77.00
2018-05-09T05:09:40.383Z,76.30
2018-05-09T05:12:08.393Z,76.80
2018-05-09T05:14:36.518Z,76.20
2018-05-09T05:17:04.437Z,76.40
2018-05-09T05:19:32.347Z,76.00
2018-05-09T05:22:00.392Z,75.00
2018-05-09T05:24:28.371Z,75.30
2018-05-09T05:26:56.363Z,75.90
2018-05-09T05:29:24.449Z,75.30
2018-05-09T05:31:53.130Z,75.10
2018-05-09T05:34:21.063Z,75.00
2018-05-09T05:36:49.003Z,74.50
2018-05-09T05:39:16.907Z,74.00
2018-05-09T05:41:44.796Z,74.40
2018-05-09T05:44:12.726Z,73.80
2018-05-09T05:46:40.650Z,72.70
2018-05-09T05:49:09.391Z,70.00
2018-05-09T05:51:37.496Z,70.00
2018-05-09T05:54:05.475Z,70.10
2018-05-09T05:56:33.539Z,68.60
2018-05-09T05:59:01.639Z,68.50
2018-05-09T06:01:29.617Z,67.50
2018-05-09T06:03:57.511Z,67.30
2018-05-09T06:06:25.518Z,66.70
2018-05-09T06:08:53.398Z,63.90
2018-05-09T06:11:22.100Z,66.40
2018-05-09T06:13:50.826Z,64.70
2018-05-09T06:16:18.774Z,64.70
2018-05-09T06:18:46.761Z,63.10
2018-05-09T06:21:14.697Z,64.10
2018-05-09T06:23:43.438Z,65.90
2018-05-09T06:26:11.370Z,65.80
2018-05-09T06:28:39.446Z,61.10
2018-05-09T06:31:07.366Z,61.70
2018-05-09T06:33:35.268Z,61.20
2018-05-09T06:36:03.284Z,60.70
2018-05-09T06:38:31.217Z,61.30
2018-05-09T06:40:59.179Z,59.10
2018-05-09T06:43:27.111Z,61.70
2018-05-09T06:45:55.108Z,61.80
2018-05-09T06:48:23.862Z,61.50
2018-05-09T06:50:51.819Z,61.70
2018-05-09T06:53:19.822Z,64.70
2018-05-09T06:55:48.609Z,63.30
2018-05-09T06:58:17.385Z,61.10
2018-05-09T07:00:45.358Z,61.30
2018-05-09T07:03:13.403Z,58.90
2018-05-09T07:05:41.426Z,61.60
2018-05-09T07:08:10.088Z,60.70
2018-05-09T07:10:38.258Z,60.80
2018-05-09T07:13:06.218Z,60.40
2018-05-09T07:15:34.220Z,59.70
2018-05-09T07:18:02.934Z,57.20
2018-05-09T07:20:30.900Z,57.20
2018-05-09T07:22:58.862Z,57.60
2018-05-09T07:25:26.806Z,56.00
2018-05-09T07:27:55.513Z,57.20
2018-05-09T07:30:24.223Z,55.90
2018-05-09T07:32:52.146Z,56.00
2018-05-09T07:35:20.084Z,56.10
2018-05-09T07:37:48.067Z,55.30
2018-05-09T07:40:15.965Z,56.90
2018-05-09T07:42:44.730Z,54.10
2018-05-09T07:45:12.670Z,54.20
2018-05-09T07:47:40.678Z,55.60
2018-05-09T07:50:08.607Z,54.80
2018-05-09T07:52:36.589Z,54.30
2018-05-09T07:55:04.550Z,52.80
2018-05-09T07:57:32.480Z,54.90
2018-05-09T08:00:01.179Z,55.60
2018-05-09T08:02:29.078Z,55.70
2018-05-09T08:04:57.051Z,54.30
2018-05-09T08:07:25.719Z,55.90
2018-05-09T08:09:53.705Z,55.90
2018-05-09T08:12:21.736Z,56.10
2018-05-09T08:14:49.620Z,57.80
2018-05-09T08:17:17.580Z,56.20
2018-05-09T08:19:45.588Z,57.30
2018-05-09T08:22:13.516Z,56.60
2018-05-09T08:24:41.512Z,56.60
2018-05-09T08:27:09.451Z,56.90
2018-05-09T08:29:37.442Z,56.60
2018-05-09T08:32:05.362Z,56.50
2018-05-09T08:34:33.318Z,56.00
2018-05-09T08:37:01.310Z,57.00
2018-05-09T08:39:29.975Z,54.00
2018-05-09T08:41:57.895Z,54.10
2018-05-09T08:44:25.820Z,55.10
2018-05-09T08:46:53.782Z,55.30
2018-05-09T08:49:21.798Z,55.70
2018-05-09T08:51:49.810Z,56.20
2018-05-09T08:54:17.718Z,54.20
2018-05-09T08:56:46.445Z,54.90
2018-05-09T08:59:14.421Z,54.90
2018-05-09T09:01:43.152Z,55.20
2018-05-09T09:04:11.929Z,53.80
2018-05-09T09:06:39.861Z,53.70
2018-05-09T09:09:07.866Z,52.80
2018-05-09T09:11:35.780Z,52.20
2018-05-09T09:14:03.675Z,51.30
2018-05-09T09:16:32.358Z,53.70
2018-05-09T09:19:00.364Z,53.70
2018-05-09T09:21:28.337Z,51.20
2018-05-09T09:23:56.257Z,53.20
2018-05-09T09:26:24.214Z,52.20
2018-05-09T09:28:52.115Z,52.80
2018-05-09T09:31:20.033Z,53.30
2018-05-09T09:33:48.746Z,51.50
2018-05-09T09:36:16.681Z,51.60
2018-05-09T09:38:45.449Z,51.90
2018-05-09T09:41:13.538Z,51.80
2018-05-09T09:43:42.282Z,51.20
2018-05-09T09:46:10.172Z,50.90
2018-05-09T09:48:38.257Z,50.10
2018-05-09T09:51:06.950Z,50.40
2018-05-09T09:53:35.715Z,49.20
2018-05-09T09:56:03.647Z,49.20
2018-05-09T09:58:31.598Z,51.10
2018-05-09T10:00:59.567Z,49.20
2018-05-09T10:03:27.529Z,47.40
2018-05-09T10:05:56.254Z,49.00
2018-05-09T10:08:24.146Z,49.00
2018-05-09T10:10:52.112Z,46.60
2018-05-09T10:13:20.046Z,48.20
2018-05-09T10:15:48.023Z,47.60
2018-05-09T10:18:16.060Z,48.00
2018-05-09T10:20:44.733Z,48.40
2018-05-09T10:23:13.508Z,47.50
2018-05-09T10:25:41.522Z,47.30
2018-05-09T10:28:09.424Z,48.20
2018-05-09T10:30:37.438Z,48.60
2018-05-09T10:33:06.239Z,47.60
2018-05-09T10:35:34.977Z,46.20
2018-05-09T10:38:02.915Z,46.10
2018-05-09T10:40:30.870Z,47.10
2018-05-09T10:42:58.798Z,47.70
2018-05-09T10:45:26.799Z,45.70
2018-05-09T10:47:55.507Z,48.20
2018-05-09T10:50:23.545Z,48.20
2018-05-09T10:52:52.311Z,46.50
2018-05-09T10:55:20.391Z,46.00
2018-05-09T10:57:48.319Z,44.80
2018-05-09T11:00:16.264Z,45.50
2018-05-09T11:02:44.235Z,47.50
2018-05-09T11:05:12.145Z,45.70
2018-05-09T11:07:40.082Z,47.30
2018-05-09T11:10:08.027Z,47.60
2018-05-09T11:12:36.779Z,44.00
2018-05-09T11:15:04.747Z,43.90
2018-05-09T11:17:32.749Z,44.00
2018-05-09T11:20:00.692Z,44.40
2018-05-09T11:22:31.476Z,44.40
2018-05-09T11:24:59.485Z,42.30
2018-05-09T11:27:27.410Z,43.10
2018-05-09T11:29:55.402Z,42.50
2018-05-09T11:32:23.327Z,43.90
2018-05-09T11:34:51.995Z,39.90
2018-05-09T11:37:19.927Z,40.00
2018-05-09T11:39:47.859Z,40.90
2018-05-09T11:42:16.563Z,43.00
2018-05-09T11:44:44.521Z,43.00
2018-05-09T11:47:13.249Z,41.70
2018-05-09T11:49:41.164Z,41.70
2018-05-09T11:52:09.863Z,39.90
2018-05-09T11:54:38.630Z,39.90
2018-05-09T11:57:06.511Z,39.90
2018-05-09T11:59:35.213Z,39.60
2018-05-09T12:02:03.282Z,39.50
2018-05-09T12:04:31.979Z,38.70
2018-05-09T12:06:59.884Z,38.70
2018-05-09T12:09:27.824Z,37.10
2018-05-09T12:11:55.795Z,37.90
2018-05-09T12:14:23.700Z,39.00
2018-05-09T12:16:52.406Z,36.60
2018-05-09T12:19:20.332Z,36.40
2018-05-09T12:21:48.270Z,37.40
2018-05-09T12:24:16.188Z,39.40
2018-05-09T12:26:44.114Z,41.40
2018-05-09T12:29:12.033Z,39.10
2018-05-09T12:31:40.004Z,37.30
2018-05-09T12:34:07.951Z,38.50
2018-05-09T12:36:35.952Z,38.10
2018-05-09T12:39:04.066Z,37.20
2018-05-09T12:41:32.065Z,37.30
2018-05-09T12:44:00.035Z,35.70
2018-05-09T12:46:27.990Z,35.40
2018-05-09T12:48:55.980Z,35.90
2018-05-09T12:51:23.931Z,37.20
2018-05-09T12:53:51.892Z,35.60
2018-05-09T12:56:19.819Z,34.10
2018-05-09T12:58:47.797Z,35.80
2018-05-09T13:01:16.564Z,32.30
2018-05-09T13:03:44.547Z,32.30
2018-05-09T13:06:12.546Z,35.10
2018-05-09T13:08:40.589Z,34.60
2018-05-09T13:11:08.500Z,37.10
2018-05-09T13:13:36.418Z,35.40
2018-05-09T13:16:04.425Z,35.10
2018-05-09T13:18:32.341Z,35.20
2018-05-09T13:21:00.271Z,34.90
2018-05-09T13:23:28.301Z,35.40
2018-05-09T13:25:56.367Z,34.90
2018-05-09T13:28:24.294Z,35.50
2018-05-09T13:30:52.306Z,35.50
2018-05-09T13:33:20.328Z,34.00
2018-05-09T13:35:48.265Z,33.90
2018-05-09T13:38:17.027Z,33.70
2018-05-09T13:40:45.957Z,33.70
2018-05-09T13:43:13.886Z,36.30
2018-05-09T13:45:41.823Z,35.00
2018-05-09T13:48:09.809Z,32.60
2018-05-09T13:50:37.803Z,34.80
2018-05-09T13:53:05.885Z,35.30
2018-05-09T13:55:33.784Z,36.80
2018-05-09T13:58:01.724Z,37.40
2018-05-09T14:00:30.464Z,39.10
2018-05-09T14:02:58.366Z,38.70
2018-05-09T14:05:26.311Z,40.50
2018-05-09T14:07:54.879Z,39.80
2018-05-09T14:10:22.819Z,40.40
2018-05-09T14:12:51.491Z,43.10
2018-05-09T14:15:20.254Z,44.80
2018-05-09T14:17:48.246Z,44.10
2018-05-09T14:20:16.170Z,44.00
2018-05-09T14:22:44.185Z,43.60
2018-05-09T14:25:12.926Z,43.10
2018-05-09T14:27:40.922Z,43.00
2018-05-09T14:30:08.914Z,45.20
2018-05-09T14:32:37.691Z,43.40
2018-05-09T14:35:05.708Z,42.60
2018-05-09T14:37:33.729Z,42.20
2018-05-09T14:40:01.641Z,44.00
2018-05-09T14:42:29.636Z,44.00
2018-05-09T14:44:57.673Z,44.50
2018-05-09T14:47:26.375Z,45.40
2018-05-09T14:49:54.358Z,44.70
2018-05-09T14:52:22.356Z,44.40
2018-05-09T14:54:50.279Z,44.70
2018-05-09T14:57:18.217Z,44.10
2018-05-09T14:59:46.943Z,44.80
2018-05-09T15:02:14.921Z,44.80
2018-05-09T15:04:42.937Z,45.50
2018-05-09T15:07:10.898Z,47.70
2018-05-09T15:09:38.816Z,48.80
2018-05-09T15:12:06.809Z,50.80
2018-05-09T15:14:34.802Z,54.60
2018-05-09T15:17:02.774Z,59.00
2018-05-09T15:19:31.147Z,60.80
2018-05-09T15:21:59.933Z,59.20
2018-05-09T15:24:27.937Z,59.20
2018-05-09T15:26:56.902Z,55.50
2018-05-09T15:29:24.894Z,55.40
2018-05-09T15:31:53.615Z,56.60
2018-05-09T15:34:21.546Z,56.10
2018-05-09T15:36:49.474Z,57.90
2018-05-09T15:39:17.445Z,53.90
2018-05-09T15:41:45.370Z,55.50
2018-05-09T15:44:14.235Z,54.50
2018-05-09T15:46:42.250Z,54.50
2018-05-09T15:49:10.185Z,53.20
2018-05-09T15:51:38.156Z,53.10
2018-05-09T15:54:06.831Z,51.90
2018-05-09T15:56:34.730Z,51.60
2018-05-09T15:59:03.602Z,52.20
2018-05-09T16:01:32.387Z,55.10
2018-05-09T16:04:00.346Z,54.40
2018-05-09T16:06:28.375Z,54.70
2018-05-09T16:08:56.279Z,56.40
2018-05-09T16:11:25.763Z,53.70
2018-05-09T16:13:53.693Z,54.20
2018-05-09T16:16:22.406Z,54.80
2018-05-09T16:18:50.366Z,54.80
2018-05-09T16:21:18.351Z,55.00
2018-05-09T16:23:46.284Z,56.30
2018-05-09T16:26:14.981Z,55.90
2018-05-09T16:28:42.973Z,55.90
2018-05-09T16:31:10.993Z,55.70
2018-05-09T16:33:38.897Z,54.20
2018-05-09T16:36:06.882Z,55.80
2018-05-09T16:38:34.799Z,54.80
2018-05-09T16:41:02.782Z,54.90
2018-05-09T16:43:31.480Z,55.70
2018-05-09T16:46:00.175Z,56.50
2018-05-09T16:48:28.202Z,56.40
2018-05-09T16:50:56.181Z,56.90
2018-05-09T16:53:24.135Z,55.80
2018-05-09T16:55:52.153Z,57.40
2018-05-09T16:58:20.123Z,56.40
2018-05-09T17:00:48.086Z,56.40
2018-05-09T17:03:16.873Z,55.90
2018-05-09T17:05:45.605Z,54.20
2018-05-09T17:08:13.557Z,54.10
2018-05-09T17:10:41.556Z,53.30
2018-05-09T17:13:09.620Z,52.70
2018-05-09T17:15:37.558Z,52.60
2018-05-09T17:18:05.863Z,53.00
2018-05-09T17:20:33.869Z,53.70
2018-05-09T17:23:01.864Z,54.40
2018-05-09T17:25:29.787Z,54.20
2018-05-09T17:27:57.714Z,54.40
2018-05-09T17:30:25.675Z,54.00
2018-05-09T17:32:53.719Z,54.90
2018-05-09T17:35:21.770Z,56.10
2018-05-09T17:37:49.931Z,55.80
2018-05-09T17:40:17.907Z,55.70
2018-05-09T17:42:45.889Z,56.40
2018-05-09T17:45:15.306Z,56.00
2018-05-09T17:47:44.030Z,56.40
2018-05-09T17:50:12.019Z,56.20
2018-05-09T17:52:45.917Z,56.60
2018-05-09T17:55:13.838Z,56.50
2018-05-09T17:57:41.788Z,55.20
2018-05-09T18:00:09.796Z,55.70
2018-05-09T18:02:38.626Z,56.30
2018-05-09T18:05:06.574Z,56.40
2018-05-09T18:07:34.489Z,56.60
2018-05-09T18:10:02.475Z,56.50
2018-05-09T18:12:30.494Z,56.10
2018-05-09T18:14:58.423Z,55.90
2018-05-09T18:17:27.220Z,56.50
2018-05-09T18:19:55.904Z,56.90
2018-05-09T18:22:24.658Z,57.00
2018-05-09T18:24:52.598Z,57.00
2018-05-09T18:27:20.571Z,57.00
2018-05-09T18:29:48.584Z,57.60
2018-05-09T18:32:16.597Z,58.00
2018-05-09T18:34:44.495Z,59.40
2018-05-09T18:37:12.586Z,59.30
2018-05-09T18:39:40.590Z,60.10
2018-05-09T18:42:09.322Z,62.70
2018-05-09T18:44:37.361Z,62.80
2018-05-09T18:47:05.338Z,63.90
2018-05-09T18:49:33.529Z,64.30
2018-05-09T18:52:01.493Z,64.90
2018-05-09T18:54:29.456Z,66.40
2018-05-09T18:56:57.389Z,65.60
2018-05-09T18:59:26.077Z,66.60
2018-05-09T19:01:54.857Z,67.60
2018-05-09T19:04:23.610Z,67.50
2018-05-09T19:06:51.582Z,67.50
2018-05-09T19:09:20.355Z,67.70
2018-05-09T19:11:48.320Z,68.70
2018-05-09T19:14:16.219Z,68.00
2018-05-09T19:16:44.145Z,68.80
2018-05-09T19:19:12.066Z,68.90
2018-05-09T19:21:40.015Z,69.10
2018-05-09T19:24:07.966Z,70.10
2018-05-09T19:26:35.910Z,70.80
2018-05-09T19:29:03.871Z,70.30
2018-05-09T19:31:32.558Z,69.70
2018-05-09T19:34:01.220Z,69.50
2018-05-09T19:36:29.142Z,69.40
2018-05-09T19:38:57.059Z,68.80
2018-05-09T19:41:25.061Z,68.40
2018-05-09T19:43:52.961Z,69.20
2018-05-09T19:46:20.876Z,69.90
2018-05-09T19:48:49.578Z,69.80
2018-05-09T19:51:17.611Z,69.10
2018-05-09T19:53:45.557Z,69.30
2018-05-09T19:56:13.485Z,68.80
2018-05-09T19:58:42.207Z,66.50
2018-05-09T20:01:10.147Z,66.50
2018-05-09T20:03:38.081Z,65.60
2018-05-09T20:06:06.036Z,65.70
2018-05-09T20:08:34.012Z,65.00
2018-05-09T20:11:01.977Z,64.90
2018-05-09T20:13:29.900Z,63.00
2018-05-09T20:15:57.969Z,62.60
2018-05-09T20:18:25.974Z,62.60
2018-05-09T20:20:53.955Z,63.30
2018-05-09T20:23:21.890Z,63.80
2018-05-09T20:25:49.857Z,63.70
2018-05-09T20:28:17.771Z,63.00
2018-05-09T20:30:51.381Z,63.20
2018-05-09T20:33:19.299Z,63.00
2018-05-09T20:35:47.207Z,63.30
2018-05-09T20:38:15.127Z,63.10
2018-05-09T20:40:43.104Z,63.00
2018-05-09T20:43:11.094Z,62.80
2018-05-09T20:45:39.088Z,61.80
2018-05-09T20:48:07.026Z,61.80
2018-05-09T20:50:34.928Z,61.60
2018-05-09T20:53:02.944Z,61.80
2018-05-09T20:55:36.906Z,62.50
2018-05-09T20:58:04.894Z,60.60
2018-05-09T21:00:33.578Z,61.50
2018-05-09T21:03:01.564Z,61.40
2018-05-09T21:05:30.290Z,61.00
2018-05-09T21:07:58.207Z,61.00
2018-05-09T21:10:26.976Z,60.00
2018-05-09T21:12:54.914Z,60.10
2018-05-09T21:15:23.759Z,60.20
2018-05-09T21:17:52.511Z,60.00
2018-05-09T21:20:20.509Z,60.00
2018-05-09T21:22:49.194Z,61.00
2018-05-09T21:25:17.345Z,60.30
2018-05-09T21:27:45.355Z,60.10
2018-05-09T21:30:13.274Z,60.80
2018-05-09T21:32:41.238Z,59.90
2018-05-09T21:35:09.201Z,59.90
2018-05-09T21:37:37.180Z,61.00
2018-05-09T21:40:05.166Z,60.20
2018-05-09T21:42:33.186Z,60.10
2018-05-09T21:45:01.147Z,60.30
2018-05-09T21:47:29.816Z,61.10
2018-05-09T21:49:57.809Z,61.10
2018-05-09T21:52:25.795Z,61.10
2018-05-09T21:54:53.730Z,60.80
2018-05-09T21:57:22.449Z,60.80
2018-05-09T21:59:50.367Z,60.70
2018-05-09T22:02:18.314Z,61.00
2018-05-09T22:04:46.250Z,61.00
2018-05-09T22:07:14.226Z,61.00
2018-05-09T22:09:42.203Z,61.80
2018-05-09T22:12:10.151Z,62.20
2018-05-09T22:14:38.240Z,62.40
2018-05-09T22:17:06.213Z,62.20
2018-05-09T22:19:34.233Z,62.20
2018-05-09T22:22:02.923Z,62.50
2018-05-09T22:24:30.997Z,62.40
2018-05-09T22:26:58.985Z,61.70
2018-05-09T22:29:27.705Z,62.80
2018-05-09T22:31:55.630Z,62.80
2018-05-09T22:34:24.364Z,63.30
2018-05-09T22:36:52.375Z,63.40
2018-05-09T22:39:20.303Z,63.70
2018-05-09T22:41:48.254Z,64.20
2018-05-09T22:44:16.226Z,64.10
2018-05-09T22:46:44.147Z,64.20
2018-05-09T22:49:12.096Z,63.90
2018-05-09T22:51:40.089Z,63.90
2018-05-09T22:54:08.081Z,64.20
2018-05-09T22:56:36.859Z,64.90
2018-05-09T22:59:05.539Z,64.40
2018-05-09T23:01:33.461Z,64.10
2018-05-09T23:04:01.406Z,63.50
2018-05-09T23:06:29.337Z,63.50
2018-05-09T23:08:57.326Z,63.80
2018-05-09T23:11:25.316Z,64.10
2018-05-09T23:13:53.291Z,64.40
2018-05-09T23:16:21.220Z,64.60
2018-05-09T23:18:49.271Z,64.60
2018-05-09T23:21:17.178Z,64.70
2018-05-09T23:23:45.904Z,65.00
2018-05-09T23:26:13.867Z,65.00
2018-05-09T23:28:41.893Z,64.80
2018-05-09T23:31:09.870Z,64.70
2018-05-09T23:33:38.607Z,64.90
2018-05-09T23:36:06.630Z,64.80
2018-05-09T23:38:35.332Z,64.70
2018-05-09T23:41:04.077Z,65.00
2018-05-09T23:43:32.068Z,65.00
2018-05-09T23:46:00.816Z,65.40
2018-05-09T23:48:28.836Z,64.60
2018-05-09T23:50:57.654Z,65.10
2018-05-09T23:53:25.572Z,65.10
2018-05-09T23:55:53.608Z,65.00
2018-05-09T23:58:22.310Z,64.90
